RJTR(METAR)
12/04 18:55
METAR RJTR 040955Z AUTO 33006KT 10SM CLR 12/01 A3008 RMK AO2 SLP190
T01160010 $=
戻る
トップページへ戻る
IMOC Co,.Ltd.